sensor_id;sensor_type;location;lat;lon;timestamp;temperature;humidity
44855;DHT22;30591;48.228;16.398;2022-12-07T00:00:07;4.30;99.90
44855;DHT22;30591;48.228;16.398;2022-12-07T00:02:35;4.30;99.90
44855;DHT22;30591;48.228;16.398;2022-12-07T00:05:04;4.30;99.90
44855;DHT22;30591;48.228;16.398;2022-12-07T00:07:33;4.40;99.90
44855;DHT22;30591;48.228;16.398;2022-12-07T00:10:03;4.30;99.90
44855;DHT22;30591;48.228;16.398;2022-12-07T00:12:32;4.30;99.90
44855;DHT22;30591;48.228;16.398;2022-12-07T00:15:00;4.40;99.90
44855;DHT22;30591;48.228;16.398;2022-12-07T00:17:34;4.40;99.90
44855;DHT22;30591;48.228;16.398;2022-12-07T00:20:04;4.40;99.90
44855;DHT22;30591;48.228;16.398;2022-12-07T00:22:32;4.90;99.90
44855;DHT22;30591;48.228;16.398;2022-12-07T00:25:01;4.50;99.90
44855;DHT22;30591;48.228;16.398;2022-12-07T00:27:28;4.40;99.90
44855;DHT22;30591;48.228;16.398;2022-12-07T00:29:55;4.50;99.90
44855;DHT22;30591;48.228;16.398;2022-12-07T00:32:24;4.50;99.90
44855;DHT22;30591;48.228;16.398;2022-12-07T00:34:51;4.40;99.90
44855;DHT22;30591;48.228;16.398;2022-12-07T00:37:23;4.40;99.90
44855;DHT22;30591;48.228;16.398;2022-12-07T00:39:56;4.40;99.90
44855;DHT22;30591;48.228;16.398;2022-12-07T00:42:33;4.40;99.90
44855;DHT22;30591;48.228;16.398;2022-12-07T00:45:01;4.40;99.90
44855;DHT22;30591;48.228;16.398;2022-12-07T00:47:29;4.40;99.90
44855;DHT22;30591;48.228;16.398;2022-12-07T00:50:02;4.40;99.90
44855;DHT22;30591;48.228;16.398;2022-12-07T00:52:32;4.40;99.90
44855;DHT22;30591;48.228;16.398;2022-12-07T00:54:59;4.40;99.90
44855;DHT22;30591;48.228;16.398;2022-12-07T00:57:34;4.40;99.90
44855;DHT22;30591;48.228;16.398;2022-12-07T01:00:02;4.40;99.90
44855;DHT22;30591;48.228;16.398;2022-12-07T01:02:30;4.40;99.90
44855;DHT22;30591;48.228;16.398;2022-12-07T01:04:58;4.40;99.90
44855;DHT22;30591;48.228;16.398;2022-12-07T01:07:42;4.40;99.90
44855;DHT22;30591;48.228;16.398;2022-12-07T01:10:14;4.40;99.90
44855;DHT22;30591;48.228;16.398;2022-12-07T01:12:42;4.40;99.90
44855;DHT22;30591;48.228;16.398;2022-12-07T01:15:13;4.40;99.90
44855;DHT22;30591;48.228;16.398;2022-12-07T01:17:43;4.40;99.90
44855;DHT22;30591;48.228;16.398;2022-12-07T01:20:11;4.40;99.90
44855;DHT22;30591;48.228;16.398;2022-12-07T01:22:41;4.40;99.90
44855;DHT22;30591;48.228;16.398;2022-12-07T01:25:21;4.40;99.90
44855;DHT22;30591;48.228;16.398;2022-12-07T01:27:53;4.30;99.90
44855;DHT22;30591;48.228;16.398;2022-12-07T01:30:20;4.30;99.90
44855;DHT22;30591;48.228;16.398;2022-12-07T01:32:47;4.30;99.90
44855;DHT22;30591;48.228;16.398;2022-12-07T01:35:15;4.30;99.90
44855;DHT22;30591;48.228;16.398;2022-12-07T01:37:42;4.30;99.90
44855;DHT22;30591;48.228;16.398;2022-12-07T01:40:12;4.30;99.90
44855;DHT22;30591;48.228;16.398;2022-12-07T01:42:40;4.30;99.90
44855;DHT22;30591;48.228;16.398;2022-12-07T01:45:43;4.30;99.90
44855;DHT22;30591;48.228;16.398;2022-12-07T01:48:16;4.30;99.90
44855;DHT22;30591;48.228;16.398;2022-12-07T01:50:48;4.30;99.90
44855;DHT22;30591;48.228;16.398;2022-12-07T01:53:18;4.20;99.90
44855;DHT22;30591;48.228;16.398;2022-12-07T01:55:48;4.20;99.90
44855;DHT22;30591;48.228;16.398;2022-12-07T01:58:16;4.20;99.90
44855;DHT22;30591;48.228;16.398;2022-12-07T02:00:45;4.20;99.90
44855;DHT22;30591;48.228;16.398;2022-12-07T02:03:18;4.20;99.90
44855;DHT22;30591;48.228;16.398;2022-12-07T02:05:51;4.20;99.90
44855;DHT22;30591;48.228;16.398;2022-12-07T02:08:21;4.20;99.90
44855;DHT22;30591;48.228;16.398;2022-12-07T02:10:56;4.20;99.90
44855;DHT22;30591;48.228;16.398;2022-12-07T02:13:27;4.10;99.90
44855;DHT22;30591;48.228;16.398;2022-12-07T02:22:03;4.10;99.90
44855;DHT22;30591;48.228;16.398;2022-12-07T02:30:19;4.10;99.90
44855;DHT22;30591;48.228;16.398;2022-12-07T02:35:55;4.10;99.90
44855;DHT22;30591;48.228;16.398;2022-12-07T02:38:31;4.10;99.90
44855;DHT22;30591;48.228;16.398;2022-12-07T02:41:28;4.10;99.90
44855;DHT22;30591;48.228;16.398;2022-12-07T02:44:07;4.10;99.90
44855;DHT22;30591;48.228;16.398;2022-12-07T02:47:24;4.10;99.90
44855;DHT22;30591;48.228;16.398;2022-12-07T02:49:28;4.10;99.90
44855;DHT22;30591;48.228;16.398;2022-12-07T02:51:55;4.10;99.90
44855;DHT22;30591;48.228;16.398;2022-12-07T02:54:23;4.10;99.90
44855;DHT22;30591;48.228;16.398;2022-12-07T02:57:17;4.10;99.90
44855;DHT22;30591;48.228;16.398;2022-12-07T03:02:56;4.10;99.90
44855;DHT22;30591;48.228;16.398;2022-12-07T03:05:40;4.10;99.90
44855;DHT22;30591;48.228;16.398;2022-12-07T03:11:06;4.10;99.90
44855;DHT22;30591;48.228;16.398;2022-12-07T03:14:38;4.00;99.90
44855;DHT22;30591;48.228;16.398;2022-12-07T03:17:01;4.00;99.90
44855;DHT22;30591;48.228;16.398;2022-12-07T03:19:33;4.00;99.90
44855;DHT22;30591;48.228;16.398;2022-12-07T03:22:05;4.00;99.90
44855;DHT22;30591;48.228;16.398;2022-12-07T03:24:59;4.00;99.90
44855;DHT22;30591;48.228;16.398;2022-12-07T03:27:38;4.00;99.90
44855;DHT22;30591;48.228;16.398;2022-12-07T03:30:32;4.00;99.90
44855;DHT22;30591;48.228;16.398;2022-12-07T03:33:05;4.00;99.90
44855;DHT22;30591;48.228;16.398;2022-12-07T03:35:53;4.00;99.90
44855;DHT22;30591;48.228;16.398;2022-12-07T03:38:35;4.00;99.90
44855;DHT22;30591;48.228;16.398;2022-12-07T03:41:16;4.00;99.90
44855;DHT22;30591;48.228;16.398;2022-12-07T03:43:50;4.00;99.90
44855;DHT22;30591;48.228;16.398;2022-12-07T03:49:19;4.00;99.90
44855;DHT22;30591;48.228;16.398;2022-12-07T03:54:55;4.00;99.90
44855;DHT22;30591;48.228;16.398;2022-12-07T03:57:25;4.00;99.90
44855;DHT22;30591;48.228;16.398;2022-12-07T04:00:00;4.00;99.90
44855;DHT22;30591;48.228;16.398;2022-12-07T04:02:39;4.00;99.90
44855;DHT22;30591;48.228;16.398;2022-12-07T04:05:13;4.00;99.90
44855;DHT22;30591;48.228;16.398;2022-12-07T04:07:41;3.90;99.90
44855;DHT22;30591;48.228;16.398;2022-12-07T04:10:09;4.00;99.90
44855;DHT22;30591;48.228;16.398;2022-12-07T04:12:39;4.00;99.90
44855;DHT22;30591;48.228;16.398;2022-12-07T04:15:08;4.00;99.90
44855;DHT22;30591;48.228;16.398;2022-12-07T04:17:36;3.90;99.90
44855;DHT22;30591;48.228;16.398;2022-12-07T04:20:04;3.90;99.90
44855;DHT22;30591;48.228;16.398;2022-12-07T04:22:32;3.80;99.90
44855;DHT22;30591;48.228;16.398;2022-12-07T04:25:00;3.80;99.90
44855;DHT22;30591;48.228;16.398;2022-12-07T04:27:29;3.80;99.90
44855;DHT22;30591;48.228;16.398;2022-12-07T04:29:58;3.80;99.90
44855;DHT22;30591;48.228;16.398;2022-12-07T04:32:25;3.80;99.90
44855;DHT22;30591;48.228;16.398;2022-12-07T04:34:53;3.80;99.90
44855;DHT22;30591;48.228;16.398;2022-12-07T04:37:23;3.80;99.90
44855;DHT22;30591;48.228;16.398;2022-12-07T04:39:58;3.80;99.90
44855;DHT22;30591;48.228;16.398;2022-12-07T04:42:26;3.80;99.90
44855;DHT22;30591;48.228;16.398;2022-12-07T04:44:53;3.80;99.90
44855;DHT22;30591;48.228;16.398;2022-12-07T04:47:20;3.80;99.90
44855;DHT22;30591;48.228;16.398;2022-12-07T04:49:50;3.80;99.90
44855;DHT22;30591;48.228;16.398;2022-12-07T04:52:18;3.80;99.90
44855;DHT22;30591;48.228;16.398;2022-12-07T04:54:46;3.80;99.90
44855;DHT22;30591;48.228;16.398;2022-12-07T04:57:13;3.70;99.90
44855;DHT22;30591;48.228;16.398;2022-12-07T04:59:41;3.70;99.90
44855;DHT22;30591;48.228;16.398;2022-12-07T05:02:15;3.70;99.90
44855;DHT22;30591;48.228;16.398;2022-12-07T05:04:43;3.70;99.90
44855;DHT22;30591;48.228;16.398;2022-12-07T05:07:10;3.70;99.90
44855;DHT22;30591;48.228;16.398;2022-12-07T05:09:38;3.70;99.90
44855;DHT22;30591;48.228;16.398;2022-12-07T05:12:06;3.70;99.90
44855;DHT22;30591;48.228;16.398;2022-12-07T05:14:34;3.70;99.90
44855;DHT22;30591;48.228;16.398;2022-12-07T05:17:01;3.70;99.90
44855;DHT22;30591;48.228;16.398;2022-12-07T05:19:29;3.70;99.90
44855;DHT22;30591;48.228;16.398;2022-12-07T05:21:57;3.70;99.90
44855;DHT22;30591;48.228;16.398;2022-12-07T05:24:26;3.70;99.90
44855;DHT22;30591;48.228;16.398;2022-12-07T05:26:53;3.70;99.90
44855;DHT22;30591;48.228;16.398;2022-12-07T05:29:22;3.70;99.90
44855;DHT22;30591;48.228;16.398;2022-12-07T05:31:50;3.70;99.90
44855;DHT22;30591;48.228;16.398;2022-12-07T05:34:20;3.70;99.90
44855;DHT22;30591;48.228;16.398;2022-12-07T05:36:48;3.80;99.90
44855;DHT22;30591;48.228;16.398;2022-12-07T05:39:16;3.70;99.90
44855;DHT22;30591;48.228;16.398;2022-12-07T05:41:43;3.80;99.90
44855;DHT22;30591;48.228;16.398;2022-12-07T05:44:31;3.70;99.90
44855;DHT22;30591;48.228;16.398;2022-12-07T05:46:58;3.80;99.90
44855;DHT22;30591;48.228;16.398;2022-12-07T05:49:25;3.70;99.90
44855;DHT22;30591;48.228;16.398;2022-12-07T05:51:54;3.70;99.90
44855;DHT22;30591;48.228;16.398;2022-12-07T05:54:22;3.70;99.90
44855;DHT22;30591;48.228;16.398;2022-12-07T05:56:53;3.70;99.90
44855;DHT22;30591;48.228;16.398;2022-12-07T05:59:20;3.70;99.90
44855;DHT22;30591;48.228;16.398;2022-12-07T06:02:03;3.60;99.90
44855;DHT22;30591;48.228;16.398;2022-12-07T06:04:35;3.60;99.90
44855;DHT22;30591;48.228;16.398;2022-12-07T06:07:04;3.70;99.90
44855;DHT22;30591;48.228;16.398;2022-12-07T06:09:33;3.70;99.90
44855;DHT22;30591;48.228;16.398;2022-12-07T06:12:02;3.70;99.90
44855;DHT22;30591;48.228;16.398;2022-12-07T06:14:49;3.70;99.90
44855;DHT22;30591;48.228;16.398;2022-12-07T06:17:17;3.70;99.90
44855;DHT22;30591;48.228;16.398;2022-12-07T06:19:49;3.60;99.90
44855;DHT22;30591;48.228;16.398;2022-12-07T06:22:17;3.60;99.90
44855;DHT22;30591;48.228;16.398;2022-12-07T06:24:44;3.60;99.90
44855;DHT22;30591;48.228;16.398;2022-12-07T06:27:19;3.60;99.90
44855;DHT22;30591;48.228;16.398;2022-12-07T06:29:47;3.70;99.90
44855;DHT22;30591;48.228;16.398;2022-12-07T06:32:15;3.70;99.90
44855;DHT22;30591;48.228;16.398;2022-12-07T06:34:43;3.70;99.90
44855;DHT22;30591;48.228;16.398;2022-12-07T06:37:10;3.70;99.90
44855;DHT22;30591;48.228;16.398;2022-12-07T06:39:37;3.70;99.90
44855;DHT22;30591;48.228;16.398;2022-12-07T06:42:05;3.70;99.90
44855;DHT22;30591;48.228;16.398;2022-12-07T06:44:33;3.80;99.90
44855;DHT22;30591;48.228;16.398;2022-12-07T06:47:02;3.70;99.90
44855;DHT22;30591;48.228;16.398;2022-12-07T06:49:56;3.80;99.90
44855;DHT22;30591;48.228;16.398;2022-12-07T06:52:23;3.70;99.90
44855;DHT22;30591;48.228;16.398;2022-12-07T06:54:52;3.70;99.90
44855;DHT22;30591;48.228;16.398;2022-12-07T06:57:19;3.70;99.90
44855;DHT22;30591;48.228;16.398;2022-12-07T06:59:48;3.70;99.90
44855;DHT22;30591;48.228;16.398;2022-12-07T07:02:15;3.70;99.90
44855;DHT22;30591;48.228;16.398;2022-12-07T07:04:45;3.80;99.90
44855;DHT22;30591;48.228;16.398;2022-12-07T07:07:13;3.80;99.90
44855;DHT22;30591;48.228;16.398;2022-12-07T07:09:57;3.80;99.90
44855;DHT22;30591;48.228;16.398;2022-12-07T07:12:27;3.80;99.90
44855;DHT22;30591;48.228;16.398;2022-12-07T07:14:54;3.80;99.90
44855;DHT22;30591;48.228;16.398;2022-12-07T07:17:22;3.80;99.90
44855;DHT22;30591;48.228;16.398;2022-12-07T07:19:51;3.80;99.90
44855;DHT22;30591;48.228;16.398;2022-12-07T07:22:18;3.80;99.90
44855;DHT22;30591;48.228;16.398;2022-12-07T07:24:45;3.90;99.90
44855;DHT22;30591;48.228;16.398;2022-12-07T07:27:13;3.90;99.90
44855;DHT22;30591;48.228;16.398;2022-12-07T07:29:42;4.00;99.90
44855;DHT22;30591;48.228;16.398;2022-12-07T07:32:10;4.00;99.90
44855;DHT22;30591;48.228;16.398;2022-12-07T07:34:43;4.00;99.90
44855;DHT22;30591;48.228;16.398;2022-12-07T07:37:11;4.00;99.90
44855;DHT22;30591;48.228;16.398;2022-12-07T07:39:47;4.00;99.90
44855;DHT22;30591;48.228;16.398;2022-12-07T07:42:16;3.90;99.90
44855;DHT22;30591;48.228;16.398;2022-12-07T07:44:44;4.00;99.90
44855;DHT22;30591;48.228;16.398;2022-12-07T07:47:11;4.00;99.90
44855;DHT22;30591;48.228;16.398;2022-12-07T07:49:39;4.00;99.90
44855;DHT22;30591;48.228;16.398;2022-12-07T07:52:18;4.00;99.90
44855;DHT22;30591;48.228;16.398;2022-12-07T07:54:46;4.10;99.90
44855;DHT22;30591;48.228;16.398;2022-12-07T07:57:16;4.10;99.90
44855;DHT22;30591;48.228;16.398;2022-12-07T07:59:43;4.10;99.90
44855;DHT22;30591;48.228;16.398;2022-12-07T08:02:17;4.10;99.90
44855;DHT22;30591;48.228;16.398;2022-12-07T08:04:45;4.20;99.90
44855;DHT22;30591;48.228;16.398;2022-12-07T08:07:15;4.20;99.90
44855;DHT22;30591;48.228;16.398;2022-12-07T08:09:58;4.20;99.90
44855;DHT22;30591;48.228;16.398;2022-12-07T08:12:26;4.30;99.90
44855;DHT22;30591;48.228;16.398;2022-12-07T08:14:54;4.30;99.90
44855;DHT22;30591;48.228;16.398;2022-12-07T08:17:22;4.40;99.90
44855;DHT22;30591;48.228;16.398;2022-12-07T08:19:50;4.50;99.90
44855;DHT22;30591;48.228;16.398;2022-12-07T08:22:20;4.50;99.90
44855;DHT22;30591;48.228;16.398;2022-12-07T08:24:47;4.50;99.90
44855;DHT22;30591;48.228;16.398;2022-12-07T08:27:14;4.60;99.90
44855;DHT22;30591;48.228;16.398;2022-12-07T08:29:42;4.60;99.90
44855;DHT22;30591;48.228;16.398;2022-12-07T08:32:10;4.50;99.90
44855;DHT22;30591;48.228;16.398;2022-12-07T08:34:42;4.60;99.90
44855;DHT22;30591;48.228;16.398;2022-12-07T08:37:11;4.60;99.90
44855;DHT22;30591;48.228;16.398;2022-12-07T08:39:38;4.60;99.90
44855;DHT22;30591;48.228;16.398;2022-12-07T08:42:05;4.60;99.90
44855;DHT22;30591;48.228;16.398;2022-12-07T08:44:36;4.70;99.90
44855;DHT22;30591;48.228;16.398;2022-12-07T08:47:06;4.80;99.90
44855;DHT22;30591;48.228;16.398;2022-12-07T08:49:40;4.80;99.90
44855;DHT22;30591;48.228;16.398;2022-12-07T08:52:08;4.80;99.90
44855;DHT22;30591;48.228;16.398;2022-12-07T08:54:39;4.90;99.90
44855;DHT22;30591;48.228;16.398;2022-12-07T08:57:07;4.90;99.90
44855;DHT22;30591;48.228;16.398;2022-12-07T08:59:43;5.00;99.90
44855;DHT22;30591;48.228;16.398;2022-12-07T09:02:11;5.00;99.90
44855;DHT22;30591;48.228;16.398;2022-12-07T09:04:39;4.90;99.90
44855;DHT22;30591;48.228;16.398;2022-12-07T09:07:07;4.90;99.90
44855;DHT22;30591;48.228;16.398;2022-12-07T09:09:37;4.90;99.90
44855;DHT22;30591;48.228;16.398;2022-12-07T09:12:05;4.80;99.90
44855;DHT22;30591;48.228;16.398;2022-12-07T09:14:33;4.80;99.90
44855;DHT22;30591;48.228;16.398;2022-12-07T09:17:08;4.90;99.90
44855;DHT22;30591;48.228;16.398;2022-12-07T09:19:38;4.80;99.90
44855;DHT22;30591;48.228;16.398;2022-12-07T09:22:08;4.80;99.90
44855;DHT22;30591;48.228;16.398;2022-12-07T09:24:36;4.70;99.90
44855;DHT22;30591;48.228;16.398;2022-12-07T09:27:06;4.70;99.90
44855;DHT22;30591;48.228;16.398;2022-12-07T09:29:33;4.70;99.90
44855;DHT22;30591;48.228;16.398;2022-12-07T09:32:03;4.70;99.90
44855;DHT22;30591;48.228;16.398;2022-12-07T09:34:39;4.70;99.90
44855;DHT22;30591;48.228;16.398;2022-12-07T09:37:06;4.80;99.90
44855;DHT22;30591;48.228;16.398;2022-12-07T09:39:34;4.90;99.90
44855;DHT22;30591;48.228;16.398;2022-12-07T09:42:03;4.90;99.90
44855;DHT22;30591;48.228;16.398;2022-12-07T09:44:32;5.00;99.90
44855;DHT22;30591;48.228;16.398;2022-12-07T09:47:02;5.20;99.90
44855;DHT22;30591;48.228;16.398;2022-12-07T09:49:32;5.30;99.90
44855;DHT22;30591;48.228;16.398;2022-12-07T09:52:20;5.40;99.90
44855;DHT22;30591;48.228;16.398;2022-12-07T09:54:52;5.70;99.90
44855;DHT22;30591;48.228;16.398;2022-12-07T09:57:29;5.80;99.90
44855;DHT22;30591;48.228;16.398;2022-12-07T10:00:02;5.80;99.90
44855;DHT22;30591;48.228;16.398;2022-12-07T10:02:42;5.80;99.90
44855;DHT22;30591;48.228;16.398;2022-12-07T10:05:16;6.00;99.90
44855;DHT22;30591;48.228;16.398;2022-12-07T10:07:51;6.10;99.90
44855;DHT22;30591;48.228;16.398;2022-12-07T10:10:31;6.20;99.90
44855;DHT22;30591;48.228;16.398;2022-12-07T10:13:13;6.20;99.90
44855;DHT22;30591;48.228;16.398;2022-12-07T10:15:52;6.20;99.90
44855;DHT22;30591;48.228;16.398;2022-12-07T10:18:32;6.20;99.90
44855;DHT22;30591;48.228;16.398;2022-12-07T10:21:10;6.40;99.90
44855;DHT22;30591;48.228;16.398;2022-12-07T10:23:42;6.40;99.90
44855;DHT22;30591;48.228;16.398;2022-12-07T10:26:32;6.20;99.90
44855;DHT22;30591;48.228;16.398;2022-12-07T10:29:36;6.30;99.90
44855;DHT22;30591;48.228;16.398;2022-12-07T10:32:30;6.00;99.90
44855;DHT22;30591;48.228;16.398;2022-12-07T10:35:26;5.90;99.90
44855;DHT22;30591;48.228;16.398;2022-12-07T10:37:55;5.90;99.90
44855;DHT22;30591;48.228;16.398;2022-12-07T10:40:36;5.90;99.90
44855;DHT22;30591;48.228;16.398;2022-12-07T10:46:06;6.00;99.90
44855;DHT22;30591;48.228;16.398;2022-12-07T10:52:02;6.30;99.90
44855;DHT22;30591;48.228;16.398;2022-12-07T11:06:46;5.80;99.90
44855;DHT22;30591;48.228;16.398;2022-12-07T11:12:47;5.80;99.90
44855;DHT22;30591;48.228;16.398;2022-12-07T11:18:37;5.70;99.90
44855;DHT22;30591;48.228;16.398;2022-12-07T11:24:04;5.60;99.90
44855;DHT22;30591;48.228;16.398;2022-12-07T11:37:40;5.40;99.90
44855;DHT22;30591;48.228;16.398;2022-12-07T11:40:20;5.40;99.90
44855;DHT22;30591;48.228;16.398;2022-12-07T11:45:30;6.20;99.90
44855;DHT22;30591;48.228;16.398;2022-12-07T11:48:10;10.30;99.90
44855;DHT22;30591;48.228;16.398;2022-12-07T11:50:43;12.40;99.90
44855;DHT22;30591;48.228;16.398;2022-12-07T11:53:18;12.70;99.90
44855;DHT22;30591;48.228;16.398;2022-12-07T12:04:16;10.40;99.90
44855;DHT22;30591;48.228;16.398;2022-12-07T12:06:47;11.70;99.90
44855;DHT22;30591;48.228;16.398;2022-12-07T12:09:50;12.10;99.90
44855;DHT22;30591;48.228;16.398;2022-12-07T12:15:29;8.60;99.90
44855;DHT22;30591;48.228;16.398;2022-12-07T12:20:41;6.20;99.90
44855;DHT22;30591;48.228;16.398;2022-12-07T12:25:45;5.90;99.90
44855;DHT22;30591;48.228;16.398;2022-12-07T12:31:28;5.90;99.90
44855;DHT22;30591;48.228;16.398;2022-12-07T12:34:00;5.90;99.90
44855;DHT22;30591;48.228;16.398;2022-12-07T12:39:19;5.90;99.90
44855;DHT22;30591;48.228;16.398;2022-12-07T12:54:57;5.80;99.90
44855;DHT22;30591;48.228;16.398;2022-12-07T12:57:28;5.80;99.90
44855;DHT22;30591;48.228;16.398;2022-12-07T12:59:58;5.80;99.90
44855;DHT22;30591;48.228;16.398;2022-12-07T13:02:35;5.80;99.90
44855;DHT22;30591;48.228;16.398;2022-12-07T13:13:40;6.00;99.90
44855;DHT22;30591;48.228;16.398;2022-12-07T13:23:55;5.80;99.90
44855;DHT22;30591;48.228;16.398;2022-12-07T13:26:36;5.80;99.90
44855;DHT22;30591;48.228;16.398;2022-12-07T13:29:19;5.90;99.90
44855;DHT22;30591;48.228;16.398;2022-12-07T13:31:52;5.80;99.90
44855;DHT22;30591;48.228;16.398;2022-12-07T13:34:36;6.00;99.90
44855;DHT22;30591;48.228;16.398;2022-12-07T13:39:50;6.00;99.90
44855;DHT22;30591;48.228;16.398;2022-12-07T13:44:58;5.90;99.90
44855;DHT22;30591;48.228;16.398;2022-12-07T13:47:41;5.90;99.90
44855;DHT22;30591;48.228;16.398;2022-12-07T13:50:28;5.90;99.90
44855;DHT22;30591;48.228;16.398;2022-12-07T13:52:58;5.90;99.90
44855;DHT22;30591;48.228;16.398;2022-12-07T13:55:27;5.80;99.90
44855;DHT22;30591;48.228;16.398;2022-12-07T13:57:55;5.80;99.90
44855;DHT22;30591;48.228;16.398;2022-12-07T14:00:28;5.70;99.90
44855;DHT22;30591;48.228;16.398;2022-12-07T14:03:03;5.60;99.90
44855;DHT22;30591;48.228;16.398;2022-12-07T14:05:34;5.60;99.90
44855;DHT22;30591;48.228;16.398;2022-12-07T14:08:05;5.40;99.90
44855;DHT22;30591;48.228;16.398;2022-12-07T14:10:52;5.30;99.90
44855;DHT22;30591;48.228;16.398;2022-12-07T14:16:35;5.20;99.90
44855;DHT22;30591;48.228;16.398;2022-12-07T14:19:06;5.10;99.90
44855;DHT22;30591;48.228;16.398;2022-12-07T14:22:17;5.10;99.90
44855;DHT22;30591;48.228;16.398;2022-12-07T14:24:46;5.00;99.90
44855;DHT22;30591;48.228;16.398;2022-12-07T14:27:19;5.00;99.90
44855;DHT22;30591;48.228;16.398;2022-12-07T14:29:47;5.10;99.90
44855;DHT22;30591;48.228;16.398;2022-12-07T14:32:27;5.10;99.90
44855;DHT22;30591;48.228;16.398;2022-12-07T14:35:02;5.00;99.90
44855;DHT22;30591;48.228;16.398;2022-12-07T14:37:30;5.00;99.90
44855;DHT22;30591;48.228;16.398;2022-12-07T14:39:57;5.00;99.90
44855;DHT22;30591;48.228;16.398;2022-12-07T14:42:28;4.90;99.90
44855;DHT22;30591;48.228;16.398;2022-12-07T14:44:59;4.80;99.90
44855;DHT22;30591;48.228;16.398;2022-12-07T14:47:27;4.80;99.90
44855;DHT22;30591;48.228;16.398;2022-12-07T14:50:17;4.70;99.90
44855;DHT22;30591;48.228;16.398;2022-12-07T14:52:56;4.60;99.90
44855;DHT22;30591;48.228;16.398;2022-12-07T14:55:44;4.60;99.90
44855;DHT22;30591;48.228;16.398;2022-12-07T14:58:17;4.50;99.90
44855;DHT22;30591;48.228;16.398;2022-12-07T15:00:45;4.50;99.90
44855;DHT22;30591;48.228;16.398;2022-12-07T15:03:14;4.50;99.90
44855;DHT22;30591;48.228;16.398;2022-12-07T15:05:41;4.40;99.90
44855;DHT22;30591;48.228;16.398;2022-12-07T15:08:11;4.40;99.90
44855;DHT22;30591;48.228;16.398;2022-12-07T15:10:39;4.50;99.90
44855;DHT22;30591;48.228;16.398;2022-12-07T15:13:07;4.40;99.90
44855;DHT22;30591;48.228;16.398;2022-12-07T15:15:59;4.50;99.90
44855;DHT22;30591;48.228;16.398;2022-12-07T15:18:27;4.50;99.90
44855;DHT22;30591;48.228;16.398;2022-12-07T15:20:54;4.50;99.90
44855;DHT22;30591;48.228;16.398;2022-12-07T15:23:21;4.60;99.90
44855;DHT22;30591;48.228;16.398;2022-12-07T15:25:49;4.50;99.90
44855;DHT22;30591;48.228;16.398;2022-12-07T15:28:16;4.50;99.90
44855;DHT22;30591;48.228;16.398;2022-12-07T15:30:45;4.50;99.90
44855;DHT22;30591;48.228;16.398;2022-12-07T15:33:13;4.60;99.90
44855;DHT22;30591;48.228;16.398;2022-12-07T15:35:43;4.60;99.90
44855;DHT22;30591;48.228;16.398;2022-12-07T15:38:12;4.50;99.90
44855;DHT22;30591;48.228;16.398;2022-12-07T15:40:40;4.50;99.90
44855;DHT22;30591;48.228;16.398;2022-12-07T15:43:10;4.50;99.90
44855;DHT22;30591;48.228;16.398;2022-12-07T15:45:58;4.50;99.90
44855;DHT22;30591;48.228;16.398;2022-12-07T15:48:26;4.50;99.90
44855;DHT22;30591;48.228;16.398;2022-12-07T15:51:08;4.40;99.90
44855;DHT22;30591;48.228;16.398;2022-12-07T15:53:36;4.40;99.90
44855;DHT22;30591;48.228;16.398;2022-12-07T15:56:07;4.50;99.90
44855;DHT22;30591;48.228;16.398;2022-12-07T15:58:40;4.50;99.90
44855;DHT22;30591;48.228;16.398;2022-12-07T16:01:16;4.50;99.90
44855;DHT22;30591;48.228;16.398;2022-12-07T16:03:45;4.50;99.90
44855;DHT22;30591;48.228;16.398;2022-12-07T16:06:16;4.50;99.90
44855;DHT22;30591;48.228;16.398;2022-12-07T16:08:44;4.40;99.90
44855;DHT22;30591;48.228;16.398;2022-12-07T16:11:13;4.40;99.90
44855;DHT22;30591;48.228;16.398;2022-12-07T16:13:41;4.40;99.90
44855;DHT22;30591;48.228;16.398;2022-12-07T16:16:12;4.40;99.90
44855;DHT22;30591;48.228;16.398;2022-12-07T16:18:41;4.40;99.90
44855;DHT22;30591;48.228;16.398;2022-12-07T16:21:09;4.40;99.90
44855;DHT22;30591;48.228;16.398;2022-12-07T16:23:37;4.30;99.90
44855;DHT22;30591;48.228;16.398;2022-12-07T16:26:16;4.30;99.90
44855;DHT22;30591;48.228;16.398;2022-12-07T16:28:44;4.30;99.90
44855;DHT22;30591;48.228;16.398;2022-12-07T16:31:15;4.40;99.90
44855;DHT22;30591;48.228;16.398;2022-12-07T16:33:44;4.30;99.90
44855;DHT22;30591;48.228;16.398;2022-12-07T16:36:13;4.30;99.90
44855;DHT22;30591;48.228;16.398;2022-12-07T16:39:04;4.30;99.90
44855;DHT22;30591;48.228;16.398;2022-12-07T16:41:32;4.30;99.90
44855;DHT22;30591;48.228;16.398;2022-12-07T16:44:05;4.30;99.90
44855;DHT22;30591;48.228;16.398;2022-12-07T16:46:33;4.30;99.90
44855;DHT22;30591;48.228;16.398;2022-12-07T16:49:01;4.30;99.90
44855;DHT22;30591;48.228;16.398;2022-12-07T16:51:30;4.30;99.90
44855;DHT22;30591;48.228;16.398;2022-12-07T16:53:58;4.30;99.90
44855;DHT22;30591;48.228;16.398;2022-12-07T16:56:26;4.30;99.90
44855;DHT22;30591;48.228;16.398;2022-12-07T16:58:53;4.30;99.90
44855;DHT22;30591;48.228;16.398;2022-12-07T17:01:22;4.30;99.90
44855;DHT22;30591;48.228;16.398;2022-12-07T17:03:50;4.30;99.90
44855;DHT22;30591;48.228;16.398;2022-12-07T17:06:28;4.30;99.90
44855;DHT22;30591;48.228;16.398;2022-12-07T17:08:59;4.30;99.90
44855;DHT22;30591;48.228;16.398;2022-12-07T17:11:29;4.30;99.90
44855;DHT22;30591;48.228;16.398;2022-12-07T17:14:01;4.20;99.90
44855;DHT22;30591;48.228;16.398;2022-12-07T17:16:48;4.20;99.90
44855;DHT22;30591;48.228;16.398;2022-12-07T17:19:16;4.30;99.90
44855;DHT22;30591;48.228;16.398;2022-12-07T17:21:43;4.30;99.90
44855;DHT22;30591;48.228;16.398;2022-12-07T17:24:13;4.20;99.90
44855;DHT22;30591;48.228;16.398;2022-12-07T17:26:43;4.20;99.90
44855;DHT22;30591;48.228;16.398;2022-12-07T17:29:13;4.20;99.90
44855;DHT22;30591;48.228;16.398;2022-12-07T17:31:41;4.20;99.90
44855;DHT22;30591;48.228;16.398;2022-12-07T17:34:18;4.20;99.90
44855;DHT22;30591;48.228;16.398;2022-12-07T17:36:45;4.30;99.90
44855;DHT22;30591;48.228;16.398;2022-12-07T17:39:18;4.20;99.90
44855;DHT22;30591;48.228;16.398;2022-12-07T17:41:46;4.20;99.90
44855;DHT22;30591;48.228;16.398;2022-12-07T17:44:33;4.20;99.90
44855;DHT22;30591;48.228;16.398;2022-12-07T17:47:00;4.20;99.90
44855;DHT22;30591;48.228;16.398;2022-12-07T17:49:32;4.10;99.90
44855;DHT22;30591;48.228;16.398;2022-12-07T17:51:59;4.10;99.90
44855;DHT22;30591;48.228;16.398;2022-12-07T17:54:45;4.10;99.90
44855;DHT22;30591;48.228;16.398;2022-12-07T17:57:15;4.20;99.90
44855;DHT22;30591;48.228;16.398;2022-12-07T17:59:43;4.20;99.90
44855;DHT22;30591;48.228;16.398;2022-12-07T18:02:11;4.20;99.90
44855;DHT22;30591;48.228;16.398;2022-12-07T18:04:40;4.20;99.90
44855;DHT22;30591;48.228;16.398;2022-12-07T18:07:10;4.10;99.90
44855;DHT22;30591;48.228;16.398;2022-12-07T18:09:37;4.20;99.90